Time;durP1;ratioP1;P1;durP2;ratioP2;P2;SDS_P1;SDS_P2;PMS_P1;PMS_P2;Temp;Humidity;BMP_temperature;BMP_pressure;BME280_temperature;BME280_humidity;BME280_pressure;Samples;Min_cycle;Max_cycle;Signal;HPM_P1;HPM_P2
2023/06/16 00:01:09;;;;;;;6.88;3.00;;;20.00;44.00;;;;;;5114050;28;20061;-67
2023/06/16 00:03:36;;;;;;;6.25;3.35;;;20.00;44.20;;;;;;5089790;28;20048;-67
2023/06/16 00:06:14;;;;;;;5.25;3.53;;;19.90;44.30;;;;;;5094927;28;20117;-67
2023/06/16 00:08:41;;;;;;;4.85;3.25;;;19.90;44.40;;;;;;5094361;28;20487;-68
2023/06/16 00:11:07;;;;;;;5.55;3.50;;;19.90;44.50;;;;;;5096582;28;20039;-67
2023/06/16 00:13:33;;;;;;;5.28;3.00;;;19.80;44.60;;;;;;5083874;28;20399;-68
2023/06/16 00:15:58;;;;;;;5.63;3.50;;;19.80;44.70;;;;;;5094484;28;20478;-68
2023/06/16 00:18:27;;;;;;;6.20;3.45;;;19.70;44.80;;;;;;5098087;28;20125;-67
2023/06/16 00:20:54;;;;;;;5.25;3.17;;;19.70;45.00;;;;;;5095327;28;20036;-68
2023/06/16 00:23:23;;;;;;;4.90;3.25;;;19.70;45.00;;;;;;5093967;28;20051;-67
2023/06/16 00:25:50;;;;;;;4.32;3.38;;;19.60;45.10;;;;;;5097250;28;20118;-67
2023/06/16 00:28:15;;;;;;;4.72;3.25;;;19.60;45.10;;;;;;5096316;28;20044;-67
2023/06/16 00:30:43;;;;;;;4.07;3.05;;;19.60;45.20;;;;;;5093902;28;20055;-67
2023/06/16 00:33:10;;;;;;;4.90;3.08;;;19.50;45.30;;;;;;5109424;28;20054;-67
2023/06/16 00:35:35;;;;;;;4.32;2.88;;;19.50;45.40;;;;;;5115454;28;20043;-67
2023/06/16 00:38:01;;;;;;;5.25;2.95;;;19.50;45.50;;;;;;5104342;28;20144;-68
2023/06/16 00:40:27;;;;;;;5.10;3.45;;;19.50;45.60;;;;;;5078281;28;20376;-67
2023/06/16 00:42:57;;;;;;;5.28;3.38;;;19.40;45.70;;;;;;5113754;28;20402;-68
2023/06/16 00:45:24;;;;;;;5.57;2.90;;;19.40;45.80;;;;;;5111264;28;20032;-68
2023/06/16 00:47:51;;;;;;;4.80;3.17;;;19.30;45.90;;;;;;5096647;28;20035;-68
2023/06/16 00:50:21;;;;;;;7.03;3.45;;;19.30;46.00;;;;;;5107187;28;20068;-68
2023/06/16 00:52:47;;;;;;;5.38;3.50;;;19.30;46.20;;;;;;5100057;28;20044;-67
2023/06/16 00:55:12;;;;;;;4.82;3.10;;;19.30;46.30;;;;;;5094767;28;20115;-67
2023/06/16 00:57:39;;;;;;;4.70;2.97;;;19.30;46.30;;;;;;5095584;28;20044;-67
2023/06/16 01:00:07;;;;;;;4.90;3.25;;;19.20;46.50;;;;;;5102128;28;20036;-67
2023/06/16 01:02:33;;;;;;;4.78;3.95;;;19.20;46.60;;;;;;5093111;28;20044;-67
2023/06/16 01:05:00;;;;;;;4.60;3.47;;;19.10;46.80;;;;;;5101163;28;20043;-68
2023/06/16 01:07:36;;;;;;;5.00;3.33;;;19.10;46.80;;;;;;5113233;28;20039;-67
2023/06/16 01:10:21;;;;;;;5.60;3.40;;;19.10;46.90;;;;;;5113464;28;20043;-68
2023/06/16 01:13:02;;;;;;;6.35;3.75;;;19.10;46.90;;;;;;5093096;28;20044;-68
2023/06/16 01:15:29;;;;;;;4.20;3.40;;;19.00;46.90;;;;;;5092650;28;20052;-67
2023/06/16 01:17:59;;;;;;;4.10;3.33;;;19.00;47.00;;;;;;5092340;28;20059;-67
2023/06/16 01:20:48;;;;;;;5.95;3.60;;;19.00;47.20;;;;;;5096685;28;20052;-67
2023/06/16 01:23:37;;;;;;;6.18;3.28;;;18.90;47.30;;;;;;5094151;28;20540;-67
2023/06/16 01:26:05;;;;;;;6.78;3.58;;;18.90;47.40;;;;;;5100555;28;20040;-68
2023/06/16 01:28:34;;;;;;;5.78;3.75;;;18.90;47.50;;;;;;5113373;28;20063;-67
2023/06/16 01:31:01;;;;;;;5.82;3.65;;;18.80;47.60;;;;;;5111850;28;20043;-67
2023/06/16 01:33:31;;;;;;;7.38;4.30;;;18.80;47.70;;;;;;5100225;28;20040;-67
2023/06/16 01:35:58;;;;;;;5.35;3.60;;;18.80;47.80;;;;;;5112902;28;20132;-67
2023/06/16 01:38:25;;;;;;;4.88;3.45;;;18.80;47.80;;;;;;5112759;28;20130;-67
2023/06/16 01:40:51;;;;;;;7.72;4.45;;;18.70;47.90;;;;;;5094256;28;20043;-67
2023/06/16 01:43:18;;;;;;;6.45;4.22;;;18.70;48.00;;;;;;5092494;28;20055;-68
2023/06/16 01:45:45;;;;;;;4.68;4.13;;;18.70;48.20;;;;;;5101918;28;20040;-68
2023/06/16 01:48:11;;;;;;;5.35;4.10;;;18.60;48.20;;;;;;5075737;28;20044;-67
2023/06/16 01:50:37;;;;;;;7.45;4.25;;;18.60;48.30;;;;;;5092657;28;20050;-68
2023/06/16 01:53:02;;;;;;;5.30;4.00;;;18.60;48.40;;;;;;5092614;28;20454;-67
2023/06/16 01:55:28;;;;;;;5.95;3.65;;;18.50;48.50;;;;;;5104015;28;20115;-67
2023/06/16 01:57:56;;;;;;;5.70;4.00;;;18.50;48.60;;;;;;5110108;28;20065;-68
2023/06/16 02:00:39;;;;;;;5.80;4.47;;;18.50;48.60;;;;;;5092128;28;20487;-67
2023/06/16 02:03:12;;;;;;;4.85;4.15;;;18.50;48.80;;;;;;5092414;28;20495;-67
2023/06/16 02:05:41;;;;;;;5.85;3.90;;;18.40;48.90;;;;;;5091898;28;20036;-67
2023/06/16 02:08:09;;;;;;;6.35;4.95;;;18.40;49.00;;;;;;5106104;28;20048;-67
2023/06/16 02:10:35;;;;;;;6.28;4.40;;;18.40;49.10;;;;;;5096278;28;20048;-67
2023/06/16 02:13:01;;;;;;;5.45;3.88;;;18.30;49.10;;;;;;5100604;28;20040;-67
2023/06/16 02:15:27;;;;;;;7.28;4.82;;;18.30;49.20;;;;;;5080188;28;20074;-67
2023/06/16 02:17:57;;;;;;;6.97;4.53;;;18.30;49.30;;;;;;5091837;28;20040;-68
2023/06/16 02:20:27;;;;;;;5.88;4.50;;;18.30;49.50;;;;;;5091879;28;20074;-67
2023/06/16 02:22:54;;;;;;;5.95;4.82;;;18.30;49.50;;;;;;5091817;28;20032;-67
2023/06/16 02:25:20;;;;;;;6.50;5.03;;;18.20;49.50;;;;;;5107087;28;20567;-67
2023/06/16 02:27:46;;;;;;;5.38;4.57;;;18.20;49.70;;;;;;5112483;28;20092;-66
2023/06/16 02:30:13;;;;;;;6.97;5.32;;;18.20;49.90;;;;;;5097235;28;20077;-66
2023/06/16 02:32:39;;;;;;;5.72;4.50;;;18.10;50.00;;;;;;5081472;28;20043;-66
2023/06/16 02:35:06;;;;;;;7.55;4.57;;;18.20;50.10;;;;;;5110666;28;20046;-66
2023/06/16 02:37:35;;;;;;;7.55;4.47;;;18.20;50.30;;;;;;5110550;28;20047;-65
2023/06/16 02:40:04;;;;;;;5.80;4.55;;;18.10;50.20;;;;;;5095402;28;20044;-66
2023/06/16 02:42:30;;;;;;;5.50;4.93;;;18.20;50.40;;;;;;5092956;28;20040;-69
2023/06/16 02:44:56;;;;;;;5.75;4.57;;;18.10;50.50;;;;;;5091597;28;20040;-70
2023/06/16 02:47:22;;;;;;;6.55;4.60;;;18.10;50.60;;;;;;5091463;28;20487;-70
2023/06/16 02:49:48;;;;;;;9.40;5.90;;;18.10;50.70;;;;;;5073471;28;20059;-70
2023/06/16 02:52:14;;;;;;;7.28;4.65;;;18.00;50.60;;;;;;5090183;28;20383;-69
2023/06/16 02:54:40;;;;;;;5.65;4.85;;;18.00;50.70;;;;;;5090243;28;20040;-70
2023/06/16 02:57:07;;;;;;;7.93;5.40;;;18.00;50.90;;;;;;5095450;28;20101;-69
2023/06/16 02:59:34;;;;;;;7.15;5.40;;;18.00;51.00;;;;;;5110230;28;20066;-69
2023/06/16 03:01:59;;;;;;;6.78;4.63;;;17.90;51.10;;;;;;5109830;28;20068;-70
2023/06/16 03:04:25;;;;;;;5.80;4.80;;;17.90;51.10;;;;;;5110369;28;20039;-70
2023/06/16 03:06:58;;;;;;;5.78;4.95;;;18.00;51.20;;;;;;5111747;28;20076;-70
2023/06/16 03:09:26;;;;;;;7.45;5.18;;;17.90;51.30;;;;;;5096019;28;20067;-69
2023/06/16 03:11:52;;;;;;;9.15;5.63;;;18.00;51.50;;;;;;5089921;28;20117;-70
2023/06/16 03:14:17;;;;;;;5.75;5.18;;;17.90;51.80;;;;;;5090030;28;20547;-70
2023/06/16 03:16:44;;;;;;;8.48;5.20;;;17.90;51.70;;;;;;5073028;28;20150;-70
2023/06/16 03:19:11;;;;;;;6.68;5.97;;;17.90;51.80;;;;;;5089650;28;20036;-70
2023/06/16 03:21:37;;;;;;;6.90;4.60;;;17.90;51.90;;;;;;5091361;28;20044;-70
2023/06/16 03:24:03;;;;;;;6.65;4.90;;;17.90;52.00;;;;;;5104299;28;20046;-70
2023/06/16 03:26:28;;;;;;;6.38;4.95;;;17.90;52.10;;;;;;5110339;28;20487;-69
2023/06/16 03:28:54;;;;;;;6.68;4.72;;;17.80;52.00;;;;;;5110520;28;20066;-70
2023/06/16 03:31:20;;;;;;;8.30;4.70;;;17.80;52.20;;;;;;5103437;28;20115;-69
2023/06/16 03:33:45;;;;;;;6.38;4.85;;;17.80;52.30;;;;;;5077085;28;20398;-69
2023/06/16 03:36:11;;;;;;;6.63;5.45;;;17.80;52.50;;;;;;5105818;28;20060;-70
2023/06/16 03:38:37;;;;;;;6.07;4.95;;;17.90;52.80;;;;;;5090547;28;20387;-70
2023/06/16 03:41:03;;;;;;;6.25;4.78;;;17.90;52.80;;;;;;5094444;28;20111;-70
2023/06/16 03:43:28;;;;;;;7.07;5.18;;;17.90;52.70;;;;;;5076776;28;20046;-69
2023/06/16 03:45:55;;;;;;;10.48;5.75;;;17.80;52.90;;;;;;5094798;28;20067;-68
2023/06/16 03:48:20;;;;;;;6.55;4.90;;;17.80;53.10;;;;;;5112344;28;20058;-66
2023/06/16 03:50:47;;;;;;;4.93;4.43;;;17.80;53.10;;;;;;5110740;28;20052;-66
2023/06/16 03:53:12;;;;;;;8.23;5.82;;;17.80;53.10;;;;;;5094621;28;20191;-66
2023/06/16 03:55:38;;;;;;;8.35;5.32;;;17.80;53.20;;;;;;5094619;28;20201;-66
2023/06/16 03:58:04;;;;;;;6.45;4.88;;;17.80;53.30;;;;;;5093121;28;20115;-66
2023/06/16 04:00:30;;;;;;;4.93;4.43;;;17.80;53.30;;;;;;5093328;28;20048;-67
2023/06/16 04:02:56;;;;;;;6.20;5.25;;;17.80;53.30;;;;;;5111920;28;20104;-67
2023/06/16 04:05:23;;;;;;;7.90;6.10;;;17.80;53.40;;;;;;5112872;28;20039;-67
2023/06/16 04:07:51;;;;;;;6.93;4.95;;;17.80;53.60;;;;;;5093308;28;20048;-67
2023/06/16 04:10:16;;;;;;;7.70;6.00;;;17.80;53.60;;;;;;5107890;28;20059;-67
2023/06/16 04:12:42;;;;;;;6.93;6.10;;;17.80;53.70;;;;;;5113571;28;20066;-67
2023/06/16 04:15:08;;;;;;;7.88;5.35;;;17.80;53.80;;;;;;5114507;28;20084;-67
2023/06/16 04:17:34;;;;;;;7.47;5.45;;;17.80;53.80;;;;;;5105394;28;20146;-67
2023/06/16 04:20:00;;;;;;;7.43;5.35;;;17.80;53.90;;;;;;5092949;28;20040;-67
2023/06/16 04:22:25;;;;;;;6.68;4.97;;;17.80;53.90;;;;;;5101928;28;20028;-67
2023/06/16 04:24:51;;;;;;;6.00;5.28;;;17.80;54.00;;;;;;5094360;28;20487;-67
2023/06/16 04:27:17;;;;;;;8.60;6.28;;;17.80;54.10;;;;;;5093795;28;20119;-67
2023/06/16 04:29:43;;;;;;;6.45;5.45;;;17.80;54.20;;;;;;5093945;28;20047;-66
2023/06/16 04:32:11;;;;;;;7.55;6.20;;;17.70;54.40;;;;;;5092776;28;20692;-67
2023/06/16 04:34:40;;;;;;;6.78;6.03;;;17.70;54.40;;;;;;5092770;28;20392;-67
2023/06/16 04:37:09;;;;;;;9.80;6.85;;;17.80;54.70;;;;;;5088498;28;20427;-67
2023/06/16 04:39:35;;;;;;;9.13;6.65;;;17.70;54.90;;;;;;5113936;28;20039;-66
2023/06/16 04:42:02;;;;;;;7.22;6.38;;;17.70;54.90;;;;;;5112602;28;20069;-67
2023/06/16 04:44:28;;;;;;;7.30;6.60;;;17.80;55.10;;;;;;5113562;28;20046;-67
2023/06/16 04:46:54;;;;;;;7.55;6.85;;;17.80;55.30;;;;;;5112127;28;20421;-67
2023/06/16 04:49:20;;;;;;;8.15;5.85;;;17.70;55.40;;;;;;5113613;27;20351;-67
2023/06/16 04:51:46;;;;;;;9.40;8.48;;;17.80;55.60;;;;;;5111959;28;20043;-66
2023/06/16 04:54:11;;;;;;;9.27;7.53;;;17.80;55.90;;;;;;5095571;28;20070;-66
2023/06/16 04:56:37;;;;;;;9.93;8.90;;;17.80;56.10;;;;;;5112687;28;20044;-65
2023/06/16 04:59:03;;;;;;;8.88;7.97;;;17.80;56.40;;;;;;5111954;28;20038;-69
2023/06/16 05:01:29;;;;;;;11.20;10.10;;;17.80;56.80;;;;;;5102472;28;20036;-70
2023/06/16 05:03:55;;;;;;;11.05;9.23;;;17.80;57.30;;;;;;5077888;28;20114;-70
2023/06/16 05:06:20;;;;;;;12.27;10.65;;;17.80;57.50;;;;;;5098580;28;20536;-70
2023/06/16 05:08:46;;;;;;;14.60;13.13;;;17.90;58.00;;;;;;5074780;28;20040;-70
2023/06/16 05:11:12;;;;;;;16.00;14.30;;;17.90;59.00;;;;;;5091865;28;20048;-69
2023/06/16 05:13:37;;;;;;;13.82;12.43;;;17.90;60.20;;;;;;5104141;28;20042;-70
2023/06/16 05:16:03;;;;;;;14.20;12.77;;;18.10;60.90;;;;;;5095733;28;20035;-69
2023/06/16 05:18:29;;;;;;;14.68;13.18;;;18.30;61.80;;;;;;5111645;28;20506;-69
2023/06/16 05:20:55;;;;;;;13.80;12.43;;;18.70;62.00;;;;;;5095508;28;20104;-70
2023/06/16 05:23:21;;;;;;;14.70;13.30;;;19.10;61.70;;;;;;5113888;28;20070;-70
2023/06/16 05:25:46;;;;;;;15.18;12.23;;;19.40;61.10;;;;;;5113911;28;20090;-70
2023/06/16 05:28:12;;;;;;;14.00;12.60;;;19.90;60.20;;;;;;5098221;28;20040;-69
2023/06/16 05:30:38;;;;;;;14.35;12.85;;;20.40;59.40;;;;;;5091962;28;20479;-66
2023/06/16 05:33:03;;;;;;;13.55;12.27;;;20.90;58.50;;;;;;5091963;28;20094;-66
2023/06/16 05:35:29;;;;;;;15.55;12.98;;;21.30;57.80;;;;;;5094283;28;20044;-66
2023/06/16 05:37:55;;;;;;;14.13;11.65;;;21.90;57.10;;;;;;5091646;28;20056;-66
2023/06/16 05:40:20;;;;;;;13.65;12.07;;;22.30;56.10;;;;;;5092096;28;20605;-66
2023/06/16 05:42:46;;;;;;;13.10;11.80;;;22.80;55.20;;;;;;5091780;28;20337;-66
2023/06/16 05:45:12;;;;;;;12.02;10.77;;;23.20;54.30;;;;;;5110436;28;20054;-66
2023/06/16 05:47:37;;;;;;;12.35;10.38;;;23.60;53.20;;;;;;5113283;28;20079;-66
2023/06/16 05:50:03;;;;;;;12.13;10.93;;;24.00;52.30;;;;;;5109990;28;20460;-66
2023/06/16 05:52:30;;;;;;;12.18;10.50;;;24.40;51.40;;;;;;5111597;28;20044;-67
2023/06/16 05:54:57;;;;;;;13.45;10.20;;;24.80;50.30;;;;;;5111751;28;20165;-67
2023/06/16 05:57:24;;;;;;;10.85;9.75;;;25.10;49.00;;;;;;5111486;28;20056;-68
2023/06/16 05:59:50;;;;;;;11.30;10.07;;;25.40;48.60;;;;;;5108374;28;20072;-67
2023/06/16 06:02:17;;;;;;;11.30;10.07;;;25.70;47.60;;;;;;5090487;28;20035;-69
2023/06/16 06:04:42;;;;;;;10.80;9.80;;;25.80;47.00;;;;;;5091165;28;20126;-67
2023/06/16 06:07:08;;;;;;;9.98;9.07;;;26.10;46.20;;;;;;5102821;28;20177;-67
2023/06/16 06:09:34;;;;;;;10.07;9.18;;;26.20;45.20;;;;;;5111188;28;20040;-70
2023/06/16 06:11:59;;;;;;;10.18;8.70;;;26.40;44.90;;;;;;5111174;28;20039;-71
2023/06/16 06:14:25;;;;;;;9.95;8.68;;;26.50;44.60;;;;;;5111138;28;20051;-71
2023/06/16 06:16:51;;;;;;;12.65;10.07;;;26.60;44.60;;;;;;5107989;28;20047;-71
2023/06/16 06:19:16;;;;;;;10.95;9.85;;;26.80;44.40;;;;;;5090790;28;20094;-71
2023/06/16 06:21:42;;;;;;;11.18;9.95;;;27.00;44.30;;;;;;5090786;28;20063;-72
2023/06/16 06:24:08;;;;;;;9.77;8.88;;;27.00;44.50;;;;;;5110389;28;20036;-71
2023/06/16 06:26:34;;;;;;;9.27;8.23;;;27.20;43.40;;;;;;5111016;28;20046;-71
2023/06/16 06:29:00;;;;;;;10.23;9.27;;;27.20;42.80;;;;;;5112359;28;20051;-72
2023/06/16 06:31:26;;;;;;;9.93;9.02;;;27.20;42.50;;;;;;5112231;28;20455;-72
2023/06/16 06:33:51;;;;;;;9.05;8.02;;;27.40;42.00;;;;;;5110437;28;20038;-68
2023/06/16 06:36:28;;;;;;;10.73;9.10;;;27.40;41.60;;;;;;5111564;28;20032;-68
2023/06/16 06:38:57;;;;;;;10.02;9.02;;;27.50;40.80;;;;;;5109137;28;20052;-68
2023/06/16 06:41:23;;;;;;;8.30;7.50;;;27.60;41.10;;;;;;5110779;28;20039;-68
2023/06/16 06:43:50;;;;;;;9.35;8.43;;;27.60;40.60;;;;;;5110703;28;20119;-68
2023/06/16 06:46:19;;;;;;;8.63;7.82;;;27.70;40.50;;;;;;5110545;28;20470;-68
2023/06/16 06:48:45;;;;;;;7.50;6.80;;;27.90;40.30;;;;;;5110704;28;20043;-68
2023/06/16 06:51:15;;;;;;;8.05;7.22;;;28.00;40.00;;;;;;5109241;28;20043;-68
2023/06/16 06:53:41;;;;;;;8.35;7.50;;;28.10;39.60;;;;;;5106583;28;20139;-68
2023/06/16 06:56:06;;;;;;;8.80;7.03;;;28.30;39.40;;;;;;5102973;28;20044;-68
2023/06/16 06:58:35;;;;;;;7.85;7.05;;;28.40;39.00;;;;;;5090214;28;20044;-68
2023/06/16 07:01:01;;;;;;;7.07;6.38;;;28.40;38.90;;;;;;5073272;28;20126;-68
2023/06/16 07:03:27;;;;;;;6.45;5.45;;;28.50;38.70;;;;;;5090205;28;20134;-68
2023/06/16 07:05:53;;;;;;;6.93;6.00;;;28.60;38.30;;;;;;5089980;28;20055;-69
2023/06/16 07:08:19;;;;;;;10.38;6.00;;;28.70;38.10;;;;;;5079653;28;20035;-69
2023/06/16 07:10:45;;;;;;;6.90;5.05;;;28.90;38.20;;;;;;5073109;28;20494;-68
2023/06/16 07:13:10;;;;;;;8.10;6.22;;;29.00;38.20;;;;;;5090091;28;20040;-70
2023/06/16 07:15:36;;;;;;;7.10;5.63;;;29.30;37.80;;;;;;5095680;28;20052;-69
2023/06/16 07:18:02;;;;;;;6.80;5.40;;;29.30;37.40;;;;;;5093909;28;20475;-69
2023/06/16 07:20:29;;;;;;;4.85;4.45;;;29.40;37.30;;;;;;5093972;28;20119;-69
2023/06/16 07:22:54;;;;;;;5.88;4.45;;;29.40;37.00;;;;;;5093943;28;20055;-69
2023/06/16 07:25:20;;;;;;;5.18;4.68;;;29.40;36.80;;;;;;5096333;28;20032;-69
2023/06/16 07:27:46;;;;;;;8.25;5.80;;;29.40;37.00;;;;;;5093749;28;20130;-68
2023/06/16 07:30:12;;;;;;;7.60;6.05;;;29.40;37.00;;;;;;5095094;28;20119;-68
2023/06/16 07:32:39;;;;;;;6.45;5.47;;;29.50;37.40;;;;;;5080055;28;20040;-69
2023/06/16 07:35:06;;;;;;;5.78;5.28;;;29.40;37.50;;;;;;5077032;28;20119;-69
2023/06/16 07:37:32;;;;;;;6.72;5.65;;;29.40;37.40;;;;;;5093445;28;20079;-69
2023/06/16 07:39:58;;;;;;;6.40;5.70;;;29.30;37.30;;;;;;5093635;28;20048;-69
2023/06/16 07:42:24;;;;;;;5.80;4.95;;;29.30;37.20;;;;;;5095296;28;20036;-70
2023/06/16 07:44:51;;;;;;;7.20;5.32;;;29.40;37.30;;;;;;5093805;28;20053;-69
2023/06/16 07:47:16;;;;;;;7.25;5.40;;;29.40;37.30;;;;;;5093734;28;20466;-70
2023/06/16 07:49:42;;;;;;;5.57;4.22;;;29.30;37.20;;;;;;5094070;28;20040;-70
2023/06/16 07:52:09;;;;;;;5.95;4.85;;;29.30;37.60;;;;;;5093686;28;20498;-70
2023/06/16 07:54:35;;;;;;;7.28;5.15;;;29.20;37.30;;;;;;5093314;28;20123;-70
2023/06/16 07:57:00;;;;;;;6.75;4.47;;;29.20;37.90;;;;;;5076685;28;20127;-70
2023/06/16 07:59:26;;;;;;;5.55;4.97;;;29.20;38.40;;;;;;5094658;28;20162;-70
2023/06/16 08:01:52;;;;;;;5.72;5.03;;;29.30;38.10;;;;;;5093296;28;20036;-70
2023/06/16 08:04:18;;;;;;;5.38;4.57;;;29.30;37.90;;;;;;5093330;28;20052;-69
2023/06/16 08:06:43;;;;;;;5.63;4.85;;;29.30;38.00;;;;;;5093034;28;20086;-69
2023/06/16 08:09:10;;;;;;;4.90;4.45;;;29.30;37.60;;;;;;5093384;28;20121;-69
2023/06/16 08:11:35;;;;;;;5.40;4.90;;;29.30;37.40;;;;;;5093362;28;20122;-69
2023/06/16 08:14:01;;;;;;;5.47;4.45;;;29.30;37.10;;;;;;5094621;28;20126;-70
2023/06/16 08:16:27;;;;;;;5.53;4.65;;;29.30;37.20;;;;;;5095316;28;20040;-70
2023/06/16 08:18:57;;;;;;;4.82;4.22;;;29.20;36.90;;;;;;5093172;28;20490;-70
2023/06/16 08:21:23;;;;;;;4.35;3.95;;;29.30;36.80;;;;;;5092865;28;20510;-70
2023/06/16 08:23:50;;;;;;;5.28;3.92;;;29.30;37.10;;;;;;5092535;28;20040;-70
2023/06/16 08:26:16;;;;;;;4.63;4.05;;;29.40;36.60;;;;;;5092399;28;20055;-70
2023/06/16 08:28:42;;;;;;;4.82;3.63;;;29.50;36.30;;;;;;5092967;28;20400;-70
2023/06/16 08:31:08;;;;;;;5.80;3.72;;;29.60;36.20;;;;;;5108726;28;20131;-70
2023/06/16 08:33:35;;;;;;;4.30;3.90;;;29.70;36.30;;;;;;5113001;28;20054;-71
2023/06/16 08:36:00;;;;;;;5.07;3.97;;;29.70;36.20;;;;;;5079089;28;20082;-70
2023/06/16 08:38:27;;;;;;;3.45;3.15;;;29.80;36.20;;;;;;5112414;28;20083;-70
2023/06/16 08:40:53;;;;;;;5.70;3.10;;;29.90;36.20;;;;;;5114388;28;20056;-70
2023/06/16 08:43:22;;;;;;;4.38;3.90;;;29.90;35.90;;;;;;5112899;28;20088;-70
2023/06/16 08:45:50;;;;;;;4.18;3.50;;;30.00;35.80;;;;;;5077339;28;20043;-70
2023/06/16 08:48:16;;;;;;;5.05;2.90;;;30.10;35.90;;;;;;5112729;28;20119;-70
2023/06/16 08:50:42;;;;;;;3.75;3.10;;;30.20;36.10;;;;;;5112781;28;20471;-70
2023/06/16 08:53:10;;;;;;;6.35;3.42;;;30.30;35.60;;;;;;5112707;28;20048;-70
2023/06/16 08:55:40;;;;;;;6.38;4.00;;;30.40;35.40;;;;;;5114069;28;20043;-70
2023/06/16 08:58:11;;;;;;;4.57;3.85;;;30.50;35.70;;;;;;5112479;28;20051;-70
2023/06/16 09:00:39;;;;;;;4.90;3.40;;;30.60;35.60;;;;;;5114118;28;20126;-70
2023/06/16 09:03:08;;;;;;;4.45;3.58;;;30.70;35.30;;;;;;5112265;28;20040;-69
2023/06/16 09:05:35;;;;;;;4.47;3.30;;;30.80;35.00;;;;;;5095248;28;20486;-69
2023/06/16 09:08:02;;;;;;;5.00;3.90;;;30.90;34.70;;;;;;5112579;28;20058;-69
2023/06/16 09:10:27;;;;;;;5.32;4.35;;;30.90;34.80;;;;;;5112324;28;20274;-69
2023/06/16 09:12:59;;;;;;;6.50;3.83;;;31.00;34.80;;;;;;5113656;28;20221;-69
2023/06/16 09:15:25;;;;;;;6.47;4.00;;;31.00;35.10;;;;;;5112666;28;20067;-69
2023/06/16 09:17:52;;;;;;;4.70;4.18;;;31.10;35.30;;;;;;5111978;28;20139;-68
2023/06/16 09:20:19;;;;;;;6.78;4.10;;;31.20;35.70;;;;;;5110596;28;20463;-67
2023/06/16 09:22:59;;;;;;;6.90;3.97;;;31.20;35.80;;;;;;5095261;28;20051;-67
2023/06/16 09:25:25;;;;;;;5.80;3.70;;;31.10;34.90;;;;;;5111840;28;20046;-68
2023/06/16 09:27:51;;;;;;;8.38;5.05;;;31.10;35.40;;;;;;5111946;28;20048;-68
2023/06/16 09:30:21;;;;;;;5.47;4.43;;;31.10;35.60;;;;;;5112787;28;20055;-68
2023/06/16 09:32:48;;;;;;;6.60;4.40;;;31.10;35.80;;;;;;5112258;28;20567;-68
2023/06/16 09:35:19;;;;;;;4.20;3.60;;;31.00;35.90;;;;;;5111616;28;20084;-68
2023/06/16 09:37:45;;;;;;;4.97;4.30;;;31.00;36.20;;;;;;5091650;28;20534;-68
2023/06/16 09:40:13;;;;;;;7.70;4.00;;;31.00;35.60;;;;;;5091490;28;20503;-68
2023/06/16 09:42:39;;;;;;;4.60;3.55;;;31.10;35.40;;;;;;5092225;28;20111;-68
2023/06/16 09:45:16;;;;;;;5.00;3.88;;;31.10;34.80;;;;;;5092679;28;20076;-68
2023/06/16 09:47:49;;;;;;;5.43;3.63;;;31.20;35.00;;;;;;5091438;28;20043;-68
2023/06/16 09:50:17;;;;;;;6.38;3.00;;;31.20;34.70;;;;;;5091469;28;20044;-68
2023/06/16 09:52:48;;;;;;;5.95;3.50;;;31.20;34.30;;;;;;5096079;28;20039;-69
2023/06/16 09:55:14;;;;;;;4.85;2.90;;;31.20;34.50;;;;;;5094682;28;20489;-68
2023/06/16 09:57:45;;;;;;;3.78;3.00;;;31.20;34.60;;;;;;5111433;28;20035;-68
2023/06/16 10:00:16;;;;;;;4.55;3.28;;;31.20;34.40;;;;;;5094650;28;20039;-69
2023/06/16 10:02:44;;;;;;;4.60;3.30;;;31.20;34.10;;;;;;5095174;28;20043;-68
2023/06/16 10:05:16;;;;;;;4.80;2.90;;;31.20;34.00;;;;;;5111527;28;20043;-68
2023/06/16 10:07:44;;;;;;;5.30;2.90;;;31.30;33.90;;;;;;5111765;28;20449;-68
2023/06/16 10:10:11;;;;;;;3.72;2.92;;;31.30;34.00;;;;;;5092734;28;20131;-69
2023/06/16 10:12:43;;;;;;;3.85;3.08;;;31.40;34.10;;;;;;5111468;28;20122;-69
2023/06/16 10:15:12;;;;;;;3.90;2.45;;;31.50;33.60;;;;;;5094378;28;20122;-69
2023/06/16 10:17:39;;;;;;;4.63;2.88;;;31.50;33.40;;;;;;5112620;28;20131;-69
2023/06/16 10:20:09;;;;;;;5.30;3.35;;;31.60;33.20;;;;;;5112686;28;20118;-69
2023/06/16 10:22:35;;;;;;;3.97;2.90;;;31.60;32.80;;;;;;5111314;28;20077;-68
2023/06/16 10:25:02;;;;;;;3.72;2.60;;;31.60;33.00;;;;;;5111293;28;20479;-68
2023/06/16 10:27:28;;;;;;;5.40;2.67;;;31.70;33.00;;;;;;5109498;28;20143;-68
2023/06/16 10:29:54;;;;;;;3.85;3.28;;;31.70;32.80;;;;;;5111187;28;20046;-68
2023/06/16 10:32:21;;;;;;;4.75;3.13;;;31.70;32.90;;;;;;5111124;28;20048;-68
2023/06/16 10:34:51;;;;;;;4.75;2.70;;;31.70;32.50;;;;;;5110913;28;20122;-68
2023/06/16 10:37:21;;;;;;;3.92;2.80;;;31.70;31.90;;;;;;5111095;28;20079;-70
2023/06/16 10:39:47;;;;;;;3.08;2.63;;;31.60;32.50;;;;;;5110834;28;20050;-70
2023/06/16 10:42:14;;;;;;;4.53;2.88;;;31.50;32.40;;;;;;5110299;28;20036;-69
2023/06/16 10:44:42;;;;;;;4.47;3.17;;;31.60;32.30;;;;;;5109468;28;20028;-70
2023/06/16 10:47:11;;;;;;;4.18;2.60;;;31.60;32.40;;;;;;5110755;28;20088;-70
2023/06/16 10:49:52;;;;;;;4.35;2.80;;;31.60;31.70;;;;;;5110891;28;20058;-70
2023/06/16 10:52:24;;;;;;;2.60;2.40;;;31.50;32.00;;;;;;5111074;28;20047;-70
2023/06/16 10:54:51;;;;;;;3.78;2.38;;;31.50;31.80;;;;;;5110860;28;20118;-70
2023/06/16 10:57:17;;;;;;;5.10;2.67;;;31.50;31.10;;;;;;5110885;28;20046;-70
2023/06/16 11:00:02;;;;;;;4.47;2.85;;;31.40;31.10;;;;;;5109065;28;20543;-70
2023/06/16 11:02:34;;;;;;;4.78;2.72;;;31.50;31.30;;;;;;5110689;28;20040;-70
2023/06/16 11:05:10;;;;;;;3.83;2.42;;;31.50;31.20;;;;;;5110910;28;20040;-70
2023/06/16 11:08:13;;;;;;;4.00;2.63;;;31.50;31.00;;;;;;5110636;28;20043;-70
2023/06/16 11:10:49;;;;;;;3.78;2.58;;;31.50;31.30;;;;;;5110707;28;20052;-68
2023/06/16 11:13:17;;;;;;;3.28;2.60;;;31.50;31.20;;;;;;5110872;28;20403;-69
2023/06/16 11:15:43;;;;;;;4.28;2.67;;;31.50;31.20;;;;;;5111930;28;20114;-69
2023/06/16 11:18:10;;;;;;;2.50;2.17;;;31.60;31.10;;;;;;5098623;28;20075;-71
2023/06/16 11:20:36;;;;;;;3.22;2.08;;;31.60;31.30;;;;;;5110474;28;20540;-70
2023/06/16 11:23:03;;;;;;;4.22;2.35;;;31.60;31.20;;;;;;5097102;28;20519;-70
2023/06/16 11:25:28;;;;;;;4.57;2.50;;;31.70;31.40;;;;;;5090340;28;20085;-70
2023/06/16 11:27:55;;;;;;;5.38;2.40;;;31.70;31.10;;;;;;5073263;28;20047;-69
2023/06/16 11:30:21;;;;;;;2.92;2.40;;;31.70;30.70;;;;;;5084555;28;20032;-70
2023/06/16 11:32:47;;;;;;;2.83;2.08;;;31.80;30.60;;;;;;5084485;28;20044;-70
2023/06/16 11:35:13;;;;;;;4.07;2.30;;;31.80;30.90;;;;;;5085476;28;20048;-70
2023/06/16 11:37:54;;;;;;;4.78;2.60;;;31.80;31.00;;;;;;5084610;28;20059;-70
2023/06/16 11:40:25;;;;;;;3.75;2.50;;;31.80;30.40;;;;;;5084657;28;20222;-70
2023/06/16 11:42:56;;;;;;;4.57;2.45;;;31.80;30.70;;;;;;5084502;28;20097;-70
2023/06/16 11:45:23;;;;;;;3.88;2.40;;;31.80;30.70;;;;;;5084710;28;20044;-70
2023/06/16 11:47:48;;;;;;;3.15;2.13;;;31.70;30.30;;;;;;5066916;28;20067;-70
2023/06/16 11:50:17;;;;;;;2.90;2.20;;;31.80;30.40;;;;;;5082742;28;20066;-71
2023/06/16 11:52:43;;;;;;;3.03;2.25;;;31.70;30.00;;;;;;5085229;28;20051;-70
2023/06/16 11:55:09;;;;;;;3.63;2.50;;;31.70;30.00;;;;;;5085620;28;20122;-70
2023/06/16 11:57:39;;;;;;;4.13;2.47;;;31.60;30.00;;;;;;5084499;28;20048;-71
2023/06/16 12:00:07;;;;;;;3.95;2.30;;;31.50;30.00;;;;;;5084047;28;20387;-71
2023/06/16 12:02:37;;;;;;;4.75;2.20;;;31.50;30.40;;;;;;5070971;28;20047;-71
2023/06/16 12:05:24;;;;;;;3.63;2.35;;;31.50;30.00;;;;;;5087400;28;20036;-71
2023/06/16 12:07:50;;;;;;;4.75;2.72;;;31.60;30.10;;;;;;5086628;28;20052;-71
2023/06/16 12:10:16;;;;;;;4.72;2.67;;;31.60;30.00;;;;;;5071104;28;20134;-71
2023/06/16 12:12:43;;;;;;;4.80;3.08;;;31.60;30.00;;;;;;5087936;28;20131;-71
2023/06/16 12:15:15;;;;;;;2.15;1.95;;;31.60;29.80;;;;;;5088175;28;20048;-72
2023/06/16 12:17:41;;;;;;;5.57;2.72;;;31.60;30.00;;;;;;5087035;28;20075;-72
2023/06/16 12:20:10;;;;;;;2.70;2.20;;;31.70;30.50;;;;;;5087461;28;20435;-72
2023/06/16 12:22:39;;;;;;;4.72;2.50;;;31.60;30.30;;;;;;5086980;28;20105;-71
2023/06/16 12:25:16;;;;;;;4.47;2.25;;;31.70;30.00;;;;;;5087151;28;20165;-71
2023/06/16 12:27:49;;;;;;;6.22;2.75;;;31.50;30.00;;;;;;5087091;28;20479;-72
2023/06/16 12:30:15;;;;;;;4.82;2.30;;;31.50;30.80;;;;;;5086806;28;20065;-72
2023/06/16 12:32:42;;;;;;;3.80;2.60;;;31.50;31.00;;;;;;5069979;28;20629;-72
2023/06/16 12:35:08;;;;;;;2.67;2.08;;;31.50;31.00;;;;;;5086732;28;20040;-72
2023/06/16 12:37:34;;;;;;;3.88;3.00;;;31.30;31.10;;;;;;5087932;28;20467;-72
2023/06/16 12:40:10;;;;;;;4.00;2.40;;;31.40;30.90;;;;;;5086567;28;20432;-72
2023/06/16 12:42:37;;;;;;;3.10;2.50;;;31.30;30.80;;;;;;5086903;28;20058;-71
2023/06/16 12:45:05;;;;;;;2.75;2.30;;;31.30;30.80;;;;;;5086608;28;20124;-70
2023/06/16 12:47:32;;;;;;;5.40;2.53;;;31.40;30.90;;;;;;5088535;28;20082;-70